Time;durP1;ratioP1;P1;durP2;ratioP2;P2;SDS_P1;SDS_P2;PMS_P1;PMS_P2;Temp;Humidity;BMP_temperature;BMP_pressure;BME280_temperature;BME280_humidity;BME280_pressure;Samples;Min_cycle;Max_cycle;Signal;HPM_P1;HPM_P2
2022/07/08 00:00:25;;;;;;;6.97;2.28;;;16.40;99.90;;;;;;5132904;27;20613;-54
2022/07/08 00:02:50;;;;;;;5.15;2.15;;;16.40;99.90;;;;;;5133396;27;20252;-54
2022/07/08 00:05:16;;;;;;;5.82;2.45;;;16.40;99.90;;;;;;5132849;27;20194;-54
2022/07/08 00:07:42;;;;;;;8.90;1.98;;;16.30;99.90;;;;;;5132357;27;20624;-54
2022/07/08 00:10:08;;;;;;;6.47;2.10;;;16.30;99.90;;;;;;5133071;27;20175;-55
2022/07/08 00:12:34;;;;;;;9.38;2.55;;;16.30;99.90;;;;;;5133159;27;20203;-54
2022/07/08 00:14:59;;;;;;;10.60;2.75;;;16.30;99.90;;;;;;5133456;27;20648;-55
2022/07/08 00:17:27;;;;;;;10.55;2.30;;;16.30;99.90;;;;;;5132847;27;20655;-55
2022/07/08 00:19:52;;;;;;;8.75;2.50;;;16.20;99.90;;;;;;5132945;27;20564;-55
2022/07/08 00:22:18;;;;;;;6.90;2.58;;;16.20;99.90;;;;;;5132943;28;20160;-55
2022/07/08 00:24:43;;;;;;;7.75;2.40;;;16.20;99.90;;;;;;5132928;28;20171;-54
2022/07/08 00:27:09;;;;;;;8.52;2.45;;;16.30;99.90;;;;;;5132591;28;20207;-54
2022/07/08 00:29:34;;;;;;;10.10;2.83;;;16.30;99.90;;;;;;5132904;28;20171;-55
2022/07/08 00:32:00;;;;;;;8.50;2.47;;;16.30;99.90;;;;;;5133046;28;20210;-55
2022/07/08 00:34:26;;;;;;;8.20;2.15;;;16.20;99.90;;;;;;5132861;28;20247;-54
2022/07/08 00:36:51;;;;;;;9.15;2.30;;;16.20;99.90;;;;;;5132822;28;20691;-54
2022/07/08 00:39:17;;;;;;;8.80;2.08;;;16.10;99.90;;;;;;5132777;28;20246;-54
2022/07/08 00:41:42;;;;;;;10.63;2.55;;;16.10;99.90;;;;;;5132802;28;20174;-54
2022/07/08 00:44:08;;;;;;;5.03;2.10;;;16.20;99.90;;;;;;5132817;27;20687;-54
2022/07/08 00:46:34;;;;;;;7.05;2.25;;;16.10;99.90;;;;;;5132700;27;20164;-54
2022/07/08 00:49:00;;;;;;;8.45;2.08;;;16.10;99.90;;;;;;5132962;28;20160;-54
2022/07/08 00:51:27;;;;;;;6.53;2.10;;;16.10;99.90;;;;;;5132894;27;20200;-54
2022/07/08 00:53:54;;;;;;;6.03;1.85;;;16.10;99.90;;;;;;5132704;27;20721;-54
2022/07/08 00:56:21;;;;;;;11.90;2.42;;;16.10;99.90;;;;;;5132611;27;20156;-54
2022/07/08 00:58:48;;;;;;;8.50;2.40;;;16.10;99.90;;;;;;5132549;27;20172;-54
2022/07/08 01:01:15;;;;;;;6.88;2.10;;;16.10;99.90;;;;;;5131454;28;20251;-54
2022/07/08 01:03:43;;;;;;;8.13;2.17;;;16.10;99.90;;;;;;5132591;27;20174;-54
2022/07/08 01:06:08;;;;;;;10.10;2.10;;;16.10;99.90;;;;;;5132825;27;20255;-54
2022/07/08 01:08:34;;;;;;;6.47;2.42;;;16.10;99.90;;;;;;5132624;28;20637;-54
2022/07/08 01:11:00;;;;;;;5.43;2.00;;;16.10;99.90;;;;;;5132773;28;20192;-54
2022/07/08 01:13:26;;;;;;;12.57;2.33;;;16.10;99.90;;;;;;5132555;27;20164;-54
2022/07/08 01:15:51;;;;;;;6.70;2.42;;;16.10;99.90;;;;;;5132804;28;20171;-54
2022/07/08 01:18:29;;;;;;;8.18;2.22;;;16.00;99.90;;;;;;5134549;27;20179;-54
2022/07/08 01:20:55;;;;;;;8.48;2.30;;;16.00;99.90;;;;;;5136579;27;20164;-54
2022/07/08 01:23:21;;;;;;;6.53;1.90;;;16.00;99.90;;;;;;5136606;27;20172;-54
2022/07/08 01:25:47;;;;;;;8.00;2.58;;;16.00;99.90;;;;;;5136132;27;20256;-54
2022/07/08 01:28:13;;;;;;;9.80;3.13;;;16.10;99.90;;;;;;5136429;27;20191;-54
2022/07/08 01:30:39;;;;;;;7.28;2.20;;;16.10;99.90;;;;;;5136094;27;20658;-54
2022/07/08 01:33:05;;;;;;;6.93;2.53;;;16.10;99.90;;;;;;5135968;27;20232;-55
2022/07/08 01:35:30;;;;;;;8.55;2.40;;;16.00;99.90;;;;;;5136518;27;20255;-55
2022/07/08 01:37:56;;;;;;;8.43;2.60;;;16.10;99.90;;;;;;5135897;27;20632;-55
2022/07/08 01:40:21;;;;;;;7.88;2.38;;;16.00;99.90;;;;;;5135908;27;20664;-54
2022/07/08 01:42:47;;;;;;;11.05;2.63;;;16.10;99.90;;;;;;5136126;27;20167;-54
2022/07/08 01:45:13;;;;;;;9.57;2.10;;;16.10;99.90;;;;;;5135768;27;20197;-54
2022/07/08 01:47:38;;;;;;;11.68;2.35;;;16.10;99.90;;;;;;5135969;27;20178;-54
2022/07/08 01:50:05;;;;;;;8.38;2.83;;;16.00;99.90;;;;;;5135727;27;20498;-54
2022/07/08 01:52:30;;;;;;;8.95;2.10;;;16.00;99.90;;;;;;5135947;27;20556;-54
2022/07/08 01:54:56;;;;;;;7.13;1.88;;;16.00;99.90;;;;;;5135523;27;20242;-54
2022/07/08 01:57:22;;;;;;;7.90;2.30;;;16.10;99.90;;;;;;5135548;27;20168;-54
2022/07/08 01:59:49;;;;;;;8.43;2.25;;;16.00;99.90;;;;;;5135430;27;20164;-54
2022/07/08 02:02:19;;;;;;;13.23;2.25;;;16.00;99.90;;;;;;5135492;27;20167;-54
2022/07/08 02:04:45;;;;;;;9.98;2.22;;;16.00;99.90;;;;;;5135464;27;20188;-54
2022/07/08 02:07:11;;;;;;;9.32;2.55;;;16.00;99.90;;;;;;5135255;27;20160;-54
2022/07/08 02:09:37;;;;;;;10.13;2.10;;;16.00;99.90;;;;;;5134203;27;20164;-54
2022/07/08 02:12:19;;;;;;;6.32;1.80;;;16.10;99.90;;;;;;5135221;27;20673;-54
2022/07/08 02:14:50;;;;;;;10.55;2.55;;;16.00;99.90;;;;;;5135484;27;20172;-54
2022/07/08 02:17:17;;;;;;;8.80;2.38;;;16.00;99.90;;;;;;5135486;27;20164;-54
2022/07/08 02:19:43;;;;;;;8.10;2.38;;;16.00;99.90;;;;;;5135136;27;20167;-54
2022/07/08 02:22:10;;;;;;;7.57;2.20;;;16.00;99.90;;;;;;5135083;27;20168;-54
2022/07/08 02:24:36;;;;;;;7.05;1.85;;;16.00;99.90;;;;;;5135321;27;20176;-54
2022/07/08 02:27:03;;;;;;;11.63;2.85;;;16.00;99.90;;;;;;5134863;27;20306;-54
2022/07/08 02:29:29;;;;;;;11.23;2.67;;;15.90;99.90;;;;;;5134577;27;20652;-54
2022/07/08 02:31:55;;;;;;;9.82;2.83;;;15.90;99.90;;;;;;5135142;27;20215;-54
2022/07/08 02:34:20;;;;;;;7.72;2.58;;;15.90;99.90;;;;;;5134881;27;20161;-54
2022/07/08 02:36:46;;;;;;;7.85;2.25;;;15.90;99.90;;;;;;5134947;27;20696;-55
2022/07/08 02:39:12;;;;;;;7.40;1.90;;;15.90;99.90;;;;;;5134635;27;20171;-54
2022/07/08 02:41:39;;;;;;;8.73;2.20;;;15.90;99.90;;;;;;5134747;27;20168;-54
2022/07/08 02:44:06;;;;;;;16.98;3.22;;;15.90;99.90;;;;;;5134889;27;20309;-55
2022/07/08 02:46:32;;;;;;;6.78;2.45;;;15.90;99.90;;;;;;5134785;27;20168;-54
2022/07/08 02:48:57;;;;;;;5.93;1.90;;;15.90;99.90;;;;;;5134783;27;20168;-54
2022/07/08 02:51:23;;;;;;;6.88;2.33;;;15.80;99.90;;;;;;5134445;27;20244;-54
2022/07/08 02:53:48;;;;;;;7.95;2.38;;;15.90;99.90;;;;;;5134435;27;20695;-54
2022/07/08 02:56:14;;;;;;;11.50;2.13;;;15.80;99.90;;;;;;5134425;27;20160;-54
2022/07/08 02:58:40;;;;;;;10.57;2.47;;;15.80;99.90;;;;;;5134467;27;20174;-54
2022/07/08 03:01:05;;;;;;;8.23;2.20;;;15.80;99.90;;;;;;5133825;27;20632;-54
2022/07/08 03:03:31;;;;;;;9.40;2.20;;;15.70;99.90;;;;;;5134642;27;20164;-54
2022/07/08 03:05:57;;;;;;;10.90;2.38;;;15.70;99.90;;;;;;5134494;27;20174;-54
2022/07/08 03:08:22;;;;;;;8.48;2.50;;;15.70;99.90;;;;;;5134447;27;20586;-54
2022/07/08 03:10:49;;;;;;;8.63;2.95;;;15.60;99.90;;;;;;5134295;27;20250;-54
2022/07/08 03:13:15;;;;;;;7.72;2.03;;;15.60;99.90;;;;;;5133980;27;20190;-54
2022/07/08 03:15:41;;;;;;;10.90;2.35;;;15.60;99.90;;;;;;5133988;27;20164;-54
2022/07/08 03:18:06;;;;;;;9.02;2.35;;;15.60;99.90;;;;;;5133940;27;20709;-54
2022/07/08 03:20:33;;;;;;;9.43;2.53;;;15.60;99.90;;;;;;5133495;27;20164;-54
2022/07/08 03:22:59;;;;;;;6.97;2.08;;;15.50;99.90;;;;;;5133880;27;20621;-54
2022/07/08 03:25:24;;;;;;;11.90;2.83;;;15.50;99.90;;;;;;5133434;27;20216;-54
2022/07/08 03:27:50;;;;;;;8.18;2.25;;;15.40;99.90;;;;;;5133667;27;20159;-54
2022/07/08 03:30:15;;;;;;;7.05;2.33;;;15.50;99.90;;;;;;5133636;27;20629;-54
2022/07/08 03:32:41;;;;;;;6.53;2.42;;;15.50;99.90;;;;;;5133569;27;20207;-54
2022/07/08 03:35:07;;;;;;;7.97;2.42;;;15.50;99.90;;;;;;5133691;27;20641;-54
2022/07/08 03:37:33;;;;;;;11.00;3.45;;;15.50;99.90;;;;;;5133639;27;20168;-54
2022/07/08 03:41:19;;;;;;;8.15;2.03;;;15.50;99.90;;;;;;5133911;27;20160;-55
2022/07/08 03:42:47;;;;;;;9.38;2.40;;;15.50;99.90;;;;;;5132643;27;20160;-54
2022/07/08 03:45:13;;;;;;;7.45;2.25;;;15.60;99.90;;;;;;5133479;27;20164;-54
2022/07/08 03:47:38;;;;;;;6.45;2.20;;;15.60;99.90;;;;;;5133341;27;20165;-54
2022/07/08 03:50:04;;;;;;;8.75;2.78;;;15.60;99.90;;;;;;5133414;27;20171;-54
2022/07/08 03:52:30;;;;;;;10.10;3.13;;;15.60;99.90;;;;;;5133476;27;20290;-54
2022/07/08 03:54:55;;;;;;;12.27;2.05;;;15.60;99.90;;;;;;5133294;27;20779;-54
2022/07/08 03:57:21;;;;;;;8.77;2.17;;;15.60;99.90;;;;;;5132348;27;20163;-54
2022/07/08 03:59:46;;;;;;;6.15;2.45;;;15.60;99.90;;;;;;5133347;27;20170;-54
2022/07/08 04:02:12;;;;;;;6.55;2.10;;;15.60;99.90;;;;;;5133166;27;20267;-54
2022/07/08 04:04:38;;;;;;;7.68;1.85;;;15.60;99.90;;;;;;5133096;27;20160;-54
2022/07/08 04:07:03;;;;;;;5.95;2.33;;;15.70;99.90;;;;;;5133123;27;20243;-54
2022/07/08 04:09:30;;;;;;;5.78;2.17;;;15.60;99.90;;;;;;5133663;27;20225;-57
2022/07/08 04:11:55;;;;;;;12.93;2.25;;;15.60;99.90;;;;;;5132908;27;20207;-55
2022/07/08 04:14:21;;;;;;;9.02;2.58;;;15.60;99.90;;;;;;5133348;27;20159;-54
2022/07/08 04:16:46;;;;;;;8.30;2.65;;;15.70;99.90;;;;;;5132994;27;20624;-54
2022/07/08 04:19:12;;;;;;;5.38;2.42;;;15.70;99.90;;;;;;5133108;27;20589;-54
2022/07/08 04:21:38;;;;;;;12.27;3.72;;;15.70;99.90;;;;;;5132914;28;20171;-54
2022/07/08 04:24:03;;;;;;;7.15;2.80;;;15.80;99.90;;;;;;5133168;28;20172;-54
2022/07/08 04:26:31;;;;;;;4.20;2.35;;;15.80;99.90;;;;;;5133116;27;20305;-54
2022/07/08 04:28:58;;;;;;;9.75;2.10;;;15.90;99.90;;;;;;5132806;27;20172;-54
2022/07/08 04:31:24;;;;;;;8.82;2.53;;;15.90;99.90;;;;;;5133099;27;20290;-54
2022/07/08 04:33:50;;;;;;;5.70;2.50;;;15.90;99.90;;;;;;5132761;27;20176;-54
2022/07/08 04:36:16;;;;;;;8.43;2.85;;;15.90;99.90;;;;;;5132754;28;20168;-54
2022/07/08 04:38:41;;;;;;;10.75;2.45;;;15.80;99.90;;;;;;5132798;28;20625;-54
2022/07/08 04:41:07;;;;;;;6.78;2.03;;;15.90;99.90;;;;;;5132472;28;20165;-54
2022/07/08 04:43:32;;;;;;;9.05;2.20;;;16.10;99.90;;;;;;5132799;28;20213;-54
2022/07/08 04:45:58;;;;;;;11.15;2.42;;;16.10;99.90;;;;;;5132932;28;20160;-54
2022/07/08 04:48:24;;;;;;;7.05;1.92;;;16.30;99.90;;;;;;5131870;28;20640;-54
2022/07/08 04:50:52;;;;;;;11.13;2.60;;;16.50;99.90;;;;;;5132556;28;20191;-54
2022/07/08 04:53:18;;;;;;;8.80;2.35;;;16.70;99.90;;;;;;5134936;27;20175;-54
2022/07/08 04:55:43;;;;;;;10.30;2.63;;;16.70;99.90;;;;;;5137048;27;20174;-54
2022/07/08 04:58:09;;;;;;;9.05;2.05;;;16.80;99.90;;;;;;5136699;27;20168;-54
2022/07/08 05:00:35;;;;;;;7.25;2.40;;;16.90;99.90;;;;;;5136644;27;20160;-54
2022/07/08 05:03:04;;;;;;;11.07;2.30;;;17.00;99.90;;;;;;5136423;27;20193;-54
2022/07/08 05:05:30;;;;;;;7.07;2.10;;;17.00;99.90;;;;;;5136947;27;20160;-54
2022/07/08 05:07:57;;;;;;;7.55;2.22;;;17.20;99.90;;;;;;5136801;27;20175;-54
2022/07/08 05:10:24;;;;;;;5.35;1.90;;;17.20;99.90;;;;;;5136431;27;20555;-55
2022/07/08 05:12:50;;;;;;;11.23;2.50;;;17.30;99.90;;;;;;5136621;27;20234;-54
2022/07/08 05:15:17;;;;;;;10.65;2.42;;;17.40;99.90;;;;;;5136672;27;20633;-55
2022/07/08 05:17:43;;;;;;;10.40;2.47;;;17.40;99.90;;;;;;5136219;27;20171;-55
2022/07/08 05:20:09;;;;;;;9.45;2.80;;;17.50;99.90;;;;;;5136474;27;20160;-54
2022/07/08 05:22:36;;;;;;;10.90;3.28;;;17.50;99.90;;;;;;5136510;27;20172;-55
2022/07/08 05:25:06;;;;;;;7.15;2.17;;;17.30;99.90;;;;;;5136044;27;20170;-54
2022/07/08 05:27:32;;;;;;;5.40;2.40;;;17.40;99.90;;;;;;5136143;27;20617;-54
2022/07/08 05:29:58;;;;;;;7.32;2.35;;;17.30;99.90;;;;;;5136095;27;20167;-54
2022/07/08 05:32:24;;;;;;;5.20;2.03;;;17.10;99.90;;;;;;5136066;27;20226;-54
2022/07/08 05:34:49;;;;;;;9.45;2.45;;;17.10;99.90;;;;;;5136022;27;20166;-54
2022/07/08 05:37:16;;;;;;;7.20;2.38;;;17.20;99.90;;;;;;5135702;27;20621;-54
2022/07/08 05:39:42;;;;;;;6.40;1.90;;;17.10;99.90;;;;;;5135713;27;20694;-54
2022/07/08 05:42:09;;;;;;;8.93;2.60;;;17.00;99.90;;;;;;5135513;27;20168;-54
2022/07/08 05:44:36;;;;;;;6.13;2.60;;;17.10;99.90;;;;;;5135633;27;20205;-54
2022/07/08 05:47:34;;;;;;;8.70;2.60;;;17.30;99.90;;;;;;5135959;27;20156;-54
2022/07/08 05:50:00;;;;;;;9.05;2.80;;;17.20;99.90;;;;;;5135377;27;20201;-54
2022/07/08 05:52:27;;;;;;;10.88;2.40;;;17.30;99.90;;;;;;5135428;27;20606;-54
2022/07/08 05:54:53;;;;;;;5.97;2.08;;;17.30;99.90;;;;;;5134844;27;20166;-55
2022/07/08 05:57:19;;;;;;;7.60;2.22;;;17.40;99.90;;;;;;5135084;27;20168;-54
2022/07/08 05:59:44;;;;;;;8.52;3.00;;;17.40;99.90;;;;;;5135361;27;20180;-54
2022/07/08 06:02:10;;;;;;;7.88;2.60;;;17.50;99.90;;;;;;5135645;27;20172;-55
2022/07/08 06:04:36;;;;;;;8.55;2.35;;;17.50;99.90;;;;;;5134364;27;20160;-55
2022/07/08 06:07:02;;;;;;;8.20;2.30;;;17.60;99.90;;;;;;5135360;27;20176;-54
2022/07/08 06:09:28;;;;;;;9.30;2.55;;;17.50;99.90;;;;;;5135638;27;20179;-54
2022/07/08 06:11:53;;;;;;;9.05;2.40;;;17.60;99.90;;;;;;5135177;27;20247;-54
2022/07/08 06:14:19;;;;;;;9.68;2.25;;;17.60;99.90;;;;;;5135292;27;20224;-54
2022/07/08 06:16:48;;;;;;;8.63;2.10;;;17.70;99.90;;;;;;5135419;27;20168;-54
2022/07/08 06:19:14;;;;;;;7.57;2.40;;;17.70;99.90;;;;;;5135043;27;20178;-54
2022/07/08 06:21:40;;;;;;;6.68;2.70;;;17.80;99.90;;;;;;5135155;27;20199;-54
2022/07/08 06:24:06;;;;;;;6.78;2.33;;;17.90;99.90;;;;;;5134985;27;20167;-54
2022/07/08 06:26:32;;;;;;;7.53;2.22;;;17.90;99.90;;;;;;5134920;27;20207;-55
2022/07/08 06:28:58;;;;;;;7.78;2.63;;;17.80;99.90;;;;;;5135425;27;20191;-54
2022/07/08 06:31:24;;;;;;;5.47;1.70;;;17.80;99.90;;;;;;5134767;27;20241;-54
2022/07/08 06:33:56;;;;;;;6.47;2.00;;;17.80;99.90;;;;;;5134775;27;20194;-54
2022/07/08 06:36:22;;;;;;;6.80;2.50;;;17.90;99.90;;;;;;5134934;27;21102;-54
2022/07/08 06:38:48;;;;;;;7.05;1.92;;;18.00;99.90;;;;;;5134968;27;20174;-54
2022/07/08 06:41:13;;;;;;;6.78;1.92;;;18.10;99.90;;;;;;5134722;27;20168;-55
2022/07/08 06:43:39;;;;;;;6.53;2.25;;;18.00;99.90;;;;;;5134713;27;20163;-55
2022/07/08 06:46:05;;;;;;;11.25;2.65;;;18.20;99.90;;;;;;5134593;27;20689;-54
2022/07/08 06:48:30;;;;;;;7.22;2.85;;;18.20;99.90;;;;;;5134837;27;20171;-55
2022/07/08 06:50:56;;;;;;;8.45;2.20;;;18.30;99.90;;;;;;5134661;27;20171;-54
2022/07/08 06:53:21;;;;;;;7.18;2.38;;;18.30;99.90;;;;;;5134688;27;20556;-54
2022/07/08 06:55:47;;;;;;;8.68;2.30;;;18.20;99.90;;;;;;5134319;27;20247;-54
2022/07/08 06:58:13;;;;;;;8.82;2.17;;;18.50;99.90;;;;;;5134402;27;20233;-54
2022/07/08 07:00:38;;;;;;;11.93;3.15;;;18.80;99.90;;;;;;5134304;27;20584;-54
2022/07/08 07:03:04;;;;;;;6.90;1.80;;;19.00;99.90;;;;;;5134193;27;20175;-54
2022/07/08 07:05:29;;;;;;;2.92;1.70;;;18.80;99.90;;;;;;5134635;27;20252;-54
2022/07/08 07:07:55;;;;;;;6.65;2.05;;;18.90;99.90;;;;;;5134194;27;20625;-54
2022/07/08 07:10:20;;;;;;;3.40;1.77;;;19.00;99.90;;;;;;5134007;27;20160;-54
2022/07/08 07:12:46;;;;;;;6.60;2.10;;;19.40;99.90;;;;;;5134013;27;20207;-54
2022/07/08 07:15:12;;;;;;;8.20;2.00;;;19.40;99.90;;;;;;5133909;27;20168;-54
2022/07/08 07:17:40;;;;;;;7.72;2.17;;;19.50;99.90;;;;;;5133935;27;20590;-54
2022/07/08 07:20:06;;;;;;;6.03;2.22;;;19.40;99.90;;;;;;5134239;27;20168;-54
2022/07/08 07:22:32;;;;;;;7.78;2.33;;;19.70;99.90;;;;;;5133903;27;20168;-54
2022/07/08 07:24:58;;;;;;;8.93;2.00;;;19.30;99.90;;;;;;5134006;27;20240;-54
2022/07/08 07:27:23;;;;;;;7.53;2.40;;;19.00;99.90;;;;;;5133794;27;20184;-54
2022/07/08 07:29:49;;;;;;;15.93;2.65;;;19.10;99.90;;;;;;5134022;27;20167;-54
2022/07/08 07:32:14;;;;;;;11.55;1.98;;;19.60;99.90;;;;;;5133681;27;20672;-54
2022/07/08 07:34:40;;;;;;;8.23;2.40;;;19.80;99.90;;;;;;5133565;27;20164;-54
2022/07/08 07:37:07;;;;;;;7.00;1.77;;;19.90;99.90;;;;;;5133633;27;20186;-54
2022/07/08 07:39:33;;;;;;;8.57;2.17;;;19.80;99.90;;;;;;5133522;27;20644;-54
2022/07/08 07:41:59;;;;;;;7.07;2.10;;;19.60;99.90;;;;;;5133750;27;20200;-54
2022/07/08 07:44:25;;;;;;;7.05;1.67;;;19.40;99.90;;;;;;5133432;27;20648;-54
2022/07/08 07:46:50;;;;;;;6.93;2.08;;;19.50;99.90;;;;;;5133357;27;20167;-54
2022/07/08 07:49:16;;;;;;;7.55;1.85;;;19.40;99.90;;;;;;5133442;27;20217;-54
2022/07/08 07:51:42;;;;;;;6.90;2.13;;;19.00;99.90;;;;;;5133226;27;20207;-54
2022/07/08 07:54:07;;;;;;;10.15;2.15;;;19.20;99.90;;;;;;5132077;27;20251;-53
2022/07/08 07:56:33;;;;;;;6.88;2.00;;;19.40;99.90;;;;;;5132205;27;20164;-57
2022/07/08 07:58:59;;;;;;;6.53;1.55;;;19.30;99.90;;;;;;5132304;27;20168;-55
2022/07/08 08:01:25;;;;;;;5.80;1.65;;;19.30;99.90;;;;;;5131935;27;20171;-50
2022/07/08 08:03:50;;;;;;;8.73;2.20;;;19.10;99.90;;;;;;5131829;27;20255;-59
2022/07/08 08:06:18;;;;;;;8.52;2.08;;;19.00;99.90;;;;;;5131729;27;20595;-64
2022/07/08 08:08:44;;;;;;;6.22;1.83;;;19.10;99.90;;;;;;5132122;27;20160;-56
2022/07/08 08:11:09;;;;;;;7.97;2.50;;;19.50;99.90;;;;;;5132138;27;20464;-57
2022/07/08 08:13:35;;;;;;;7.82;2.08;;;19.60;99.90;;;;;;5132055;27;20171;-56
2022/07/08 08:16:01;;;;;;;6.88;2.00;;;19.40;99.90;;;;;;5131893;27;20160;-54
2022/07/08 08:18:27;;;;;;;7.07;2.22;;;19.40;99.90;;;;;;5131613;27;20172;-54
2022/07/08 08:20:53;;;;;;;11.23;2.00;;;19.40;99.90;;;;;;5131633;27;20171;-54
2022/07/08 08:23:18;;;;;;;6.15;1.83;;;19.60;99.90;;;;;;5131565;27;20178;-53
2022/07/08 08:25:44;;;;;;;5.10;1.50;;;19.70;99.90;;;;;;5131420;28;20211;-54
2022/07/08 08:28:09;;;;;;;5.53;2.08;;;19.90;99.90;;;;;;5130828;27;20165;-54
2022/07/08 08:30:35;;;;;;;3.22;1.42;;;20.00;99.90;;;;;;5131587;28;20172;-54
2022/07/08 08:33:01;;;;;;;4.68;1.67;;;20.10;99.90;;;;;;5131798;28;20207;-54
2022/07/08 08:35:27;;;;;;;7.00;2.33;;;20.30;99.90;;;;;;5131384;28;20169;-54
2022/07/08 08:37:52;;;;;;;8.07;2.28;;;20.30;99.90;;;;;;5131673;27;20289;-54
2022/07/08 08:40:21;;;;;;;10.35;1.83;;;20.30;99.90;;;;;;5131692;28;20293;-54
2022/07/08 08:42:47;;;;;;;9.30;1.90;;;20.00;99.90;;;;;;5130243;28;20695;-54
2022/07/08 08:45:12;;;;;;;4.85;1.90;;;20.20;99.90;;;;;;5131249;28;20171;-54
2022/07/08 08:47:38;;;;;;;5.00;2.08;;;20.50;99.90;;;;;;5131373;28;20588;-54
2022/07/08 08:52:55;;;;;;;5.47;1.80;;;20.60;99.90;;;;;;5131162;28;20260;-54
2022/07/08 08:55:28;;;;;;;4.55;1.80;;;20.80;99.90;;;;;;5131261;27;20206;-54
2022/07/08 08:58:00;;;;;;;5.22;1.92;;;20.90;99.90;;;;;;5131238;27;20159;-54
2022/07/08 09:00:27;;;;;;;5.57;1.75;;;21.10;99.90;;;;;;5130373;27;20581;-53
2022/07/08 09:02:54;;;;;;;6.82;2.20;;;21.10;99.90;;;;;;5131037;27;20168;-54
2022/07/08 09:05:21;;;;;;;8.02;2.38;;;21.30;99.90;;;;;;5131149;27;20156;-54
2022/07/08 09:07:47;;;;;;;10.68;2.17;;;21.30;99.90;;;;;;5131187;27;20259;-54
2022/07/08 09:10:17;;;;;;;5.88;2.03;;;21.30;99.90;;;;;;5131133;27;20234;-54
2022/07/08 09:13:08;;;;;;;6.40;2.72;;;21.20;99.90;;;;;;5131330;27;20211;-54
2022/07/08 09:15:57;;;;;;;7.53;2.50;;;21.40;99.90;;;;;;5131183;27;20178;-54
2022/07/08 09:18:38;;;;;;;7.95;2.25;;;21.40;99.90;;;;;;5130910;27;20172;-54
2022/07/08 09:21:04;;;;;;;6.80;2.45;;;21.00;99.90;;;;;;5131140;27;20167;-54
2022/07/08 09:23:37;;;;;;;8.10;2.45;;;20.60;99.90;;;;;;5131461;27;20167;-54
2022/07/08 09:26:05;;;;;;;10.50;2.38;;;21.20;99.90;;;;;;5129542;28;20692;-54
2022/07/08 09:28:36;;;;;;;7.38;2.20;;;21.40;99.90;;;;;;5131346;27;20171;-54
2022/07/08 09:31:07;;;;;;;7.38;1.92;;;21.60;99.90;;;;;;5131161;28;20160;-54
2022/07/08 09:33:33;;;;;;;7.68;2.13;;;21.60;99.90;;;;;;5130927;27;20207;-54
2022/07/08 09:36:02;;;;;;;7.97;1.80;;;21.90;99.90;;;;;;5130010;28;20305;-54
2022/07/08 09:38:29;;;;;;;11.57;2.60;;;21.70;99.90;;;;;;5131476;27;20171;-54
2022/07/08 09:41:02;;;;;;;3.85;1.88;;;21.70;99.90;;;;;;5133855;27;20648;-54
2022/07/08 09:43:28;;;;;;;8.13;2.50;;;21.60;99.90;;;;;;5134989;27;20175;-54
2022/07/08 09:45:54;;;;;;;4.70;1.92;;;21.40;99.90;;;;;;5133172;27;20168;-54
2022/07/08 09:48:23;;;;;;;6.53;2.00;;;21.60;99.90;;;;;;5132716;27;20200;-54
2022/07/08 09:50:49;;;;;;;10.77;3.17;;;21.70;99.90;;;;;;5134500;27;20264;-54
2022/07/08 09:53:17;;;;;;;7.20;2.13;;;22.00;99.90;;;;;;5134124;27;20233;-54
2022/07/08 09:55:46;;;;;;;8.77;2.55;;;22.10;99.90;;;;;;5134371;27;20160;-54
2022/07/08 09:58:13;;;;;;;11.05;2.72;;;22.00;99.90;;;;;;5134277;27;20649;-54
2022/07/08 10:00:40;;;;;;;9.05;2.40;;;22.50;99.90;;;;;;5134154;27;20175;-54
2022/07/08 10:03:06;;;;;;;10.82;2.53;;;22.30;99.90;;;;;;5134411;27;20172;-54
2022/07/08 10:05:32;;;;;;;6.45;2.13;;;22.30;99.90;;;;;;5134326;27;20190;-54
2022/07/08 10:07:58;;;;;;;6.80;1.83;;;22.50;99.90;;;;;;5133010;27;20209;-54
2022/07/08 10:10:24;;;;;;;12.75;2.70;;;23.00;99.90;;;;;;5134021;27;20164;-54
2022/07/08 10:12:56;;;;;;;9.55;2.40;;;23.10;99.90;;;;;;5133878;27;20207;-54
2022/07/08 10:15:23;;;;;;;9.20;2.80;;;23.10;99.90;;;;;;5133894;27;20170;-54
2022/07/08 10:17:50;;;;;;;6.47;2.35;;;22.90;99.90;;;;;;5133799;27;20191;-54
2022/07/08 10:20:18;;;;;;;4.13;2.13;;;22.90;99.90;;;;;;5133824;27;20667;-54
2022/07/08 10:22:49;;;;;;;5.95;2.53;;;22.80;99.90;;;;;;5133762;27;20172;-54
2022/07/08 10:25:17;;;;;;;10.18;2.70;;;22.70;99.90;;;;;;5132249;27;20753;-54
2022/07/08 10:27:42;;;;;;;6.10;2.45;;;22.90;99.90;;;;;;5133718;27;20228;-54
2022/07/08 10:30:15;;;;;;;11.20;2.55;;;22.80;99.90;;;;;;5133566;27;20164;-54
2022/07/08 10:32:44;;;;;;;8.05;2.22;;;22.70;99.90;;;;;;5133482;27;20676;-54
2022/07/08 10:35:12;;;;;;;8.52;2.03;;;22.80;99.90;;;;;;5133511;27;20493;-54
2022/07/08 10:37:55;;;;;;;6.43;2.20;;;22.80;99.90;;;;;;5133354;27;20171;-54
2022/07/08 10:40:42;;;;;;;9.88;2.90;;;22.90;99.90;;;;;;5133544;27;20155;-54
2022/07/08 10:43:25;;;;;;;7.72;2.58;;;23.10;99.90;;;;;;5133601;27;20567;-54
2022/07/08 10:46:00;;;;;;;6.70;2.15;;;23.40;99.90;;;;;;5133537;27;20172;-54
2022/07/08 10:48:47;;;;;;;8.63;2.50;;;23.20;99.90;;;;;;5133263;27;20155;-54
2022/07/08 10:51:19;;;;;;;7.97;2.40;;;23.50;99.90;;;;;;5132097;27;20175;-54
2022/07/08 10:53:51;;;;;;;10.25;2.38;;;24.20;99.90;;;;;;5133133;27;20250;-54
2022/07/08 10:56:45;;;;;;;6.18;2.08;;;24.30;99.90;;;;;;5133170;27;20174;-54
2022/07/08 10:59:20;;;;;;;8.65;2.40;;;24.10;99.90;;;;;;5132973;27;20167;-54
2022/07/08 11:02:10;;;;;;;6.18;2.03;;;23.90;99.90;;;;;;5132988;27;20235;-54
2022/07/08 11:04:37;;;;;;;5.70;2.20;;;23.90;99.90;;;;;;5132912;27;20624;-54
2022/07/08 11:07:15;;;;;;;7.68;2.83;;;24.00;99.90;;;;;;5132833;27;20689;-54
2022/07/08 11:09:42;;;;;;;8.70;2.55;;;23.80;99.90;;;;;;5132635;27;20289;-54
2022/07/08 11:12:12;;;;;;;5.68;2.40;;;23.90;99.90;;;;;;5132624;27;20211;-54
2022/07/08 11:14:45;;;;;;;6.70;2.50;;;24.10;99.90;;;;;;5131619;27;20160;-54
2022/07/08 11:17:17;;;;;;;6.22;2.40;;;24.00;99.90;;;;;;5132605;27;20167;-54
2022/07/08 11:19:47;;;;;;;6.70;2.75;;;24.20;99.90;;;;;;5132640;27;20163;-53
2022/07/08 11:22:14;;;;;;;8.10;2.33;;;24.60;99.90;;;;;;5132718;27;20525;-53
2022/07/08 11:24:41;;;;;;;4.80;2.30;;;24.60;99.90;;;;;;5132516;27;20183;-53
2022/07/08 11:27:07;;;;;;;10.43;2.70;;;24.80;99.90;;;;;;5132300;27;20302;-53
2022/07/08 11:29:33;;;;;;;9.30;2.58;;;24.90;99.90;;;;;;5132368;27;20795;-53
2022/07/08 11:32:02;;;;;;;6.82;2.22;;;24.90;99.90;;;;;;5132573;27;20195;-53
2022/07/08 11:34:28;;;;;;;5.60;2.25;;;25.10;99.90;;;;;;5132565;27;20696;-53
2022/07/08 11:37:01;;;;;;;5.63;2.22;;;25.10;99.90;;;;;;5132597;27;20171;-53
2022/07/08 11:39:27;;;;;;;9.18;2.10;;;25.00;99.90;;;;;;5132076;27;20247;-53
2022/07/08 11:41:54;;;;;;;9.50;2.78;;;24.70;99.90;;;;;;5132252;27;20242;-53
2022/07/08 11:44:21;;;;;;;11.48;2.25;;;24.70;99.90;;;;;;5132209;27;20636;-53
2022/07/08 11:46:49;;;;;;;8.63;2.70;;;24.70;99.90;;;;;;5131944;27;20261;-53
2022/07/08 11:49:15;;;;;;;8.23;2.00;;;24.50;99.90;;;;;;5130672;27;20168;-54
2022/07/08 11:52:00;;;;;;;5.97;2.42;;;24.50;99.90;;;;;;5132078;27;20282;-54
2022/07/08 11:54:28;;;;;;;7.22;2.00;;;24.60;99.90;;;;;;5132106;27;20167;-54
2022/07/08 11:56:58;;;;;;;5.50;2.33;;;24.70;99.90;;;;;;5130912;27;20174;-54
2022/07/08 11:59:28;;;;;;;5.40;1.92;;;24.80;99.90;;;;;;5131850;27;20632;-53
2022/07/08 12:01:56;;;;;;;6.00;2.00;;;25.20;99.90;;;;;;5131101;27;20168;-53
2022/07/08 12:04:22;;;;;;;11.35;2.33;;;25.50;99.90;;;;;;5131751;27;20535;-53
2022/07/08 12:06:48;;;;;;;3.70;1.95;;;26.00;99.90;;;;;;5131874;27;20225;-53
2022/07/08 12:09:19;;;;;;;6.43;2.00;;;26.30;99.90;;;;;;5131730;27;20167;-54
2022/07/08 12:11:47;;;;;;;8.48;1.92;;;26.30;99.90;;;;;;5131636;27;20183;-53
2022/07/08 12:14:13;;;;;;;4.32;1.90;;;25.80;99.90;;;;;;5131565;27;20221;-54
2022/07/08 12:16:49;;;;;;;9.27;2.13;;;26.00;99.90;;;;;;5132027;27;20250;-53
2022/07/08 12:19:36;;;;;;;6.80;2.22;;;25.80;99.90;;;;;;5131598;27;20188;-53
2022/07/08 12:22:06;;;;;;;7.18;2.47;;;25.60;99.90;;;;;;5132028;27;20692;-54
2022/07/08 12:24:34;;;;;;;10.45;2.35;;;25.50;99.90;;;;;;5131849;27;20580;-53
2022/07/08 12:27:06;;;;;;;4.63;2.17;;;25.80;99.90;;;;;;5130655;28;20775;-53
2022/07/08 12:29:36;;;;;;;8.60;2.70;;;25.90;99.90;;;;;;5131925;27;20182;-54
2022/07/08 12:32:03;;;;;;;8.30;2.38;;;26.10;99.90;;;;;;5131943;27;20251;-54
2022/07/08 12:34:29;;;;;;;6.05;1.80;;;26.00;99.90;;;;;;5131775;27;20159;-53
2022/07/08 12:37:13;;;;;;;6.40;2.30;;;26.10;99.90;;;;;;5131478;28;20175;-53
2022/07/08 12:39:39;;;;;;;7.47;2.50;;;26.10;99.90;;;;;;5131677;27;20212;-53
2022/07/08 12:42:06;;;;;;;3.17;2.10;;;25.90;99.90;;;;;;5131479;27;20164;-53
2022/07/08 12:44:47;;;;;;;6.00;1.80;;;25.80;99.90;;;;;;5130364;28;20580;-53
2022/07/08 12:47:14;;;;;;;10.90;2.30;;;25.80;99.90;;;;;;5129995;27;20171;-53
2022/07/08 12:49:41;;;;;;;9.55;2.45;;;26.00;99.90;;;;;;5131312;27;20648;-53